Time;durP1;ratioP1;P1;durP2;ratioP2;P2;SDS_P1;SDS_P2;PMS_P1;PMS_P2;Temp;Humidity;BMP_temperature;BMP_pressure;BME280_temperature;BME280_humidity;BME280_pressure;Samples;Min_cycle;Max_cycle;Signal;HPM_P1;HPM_P2
2022/08/03 00:01:22;;;;;;;3.93;1.40;;;24.30;1.00;;;;;;5076324;28;20246;-93
2022/08/03 00:04:01;;;;;;;6.93;1.63;;;24.20;1.00;;;;;;5061041;28;20172;-95
2022/08/03 00:07:01;;;;;;;4.57;1.73;;;24.20;1.00;;;;;;5078583;28;20209;-93
2022/08/03 00:09:42;;;;;;;7.20;1.80;;;24.20;1.00;;;;;;5079067;28;20180;-90
2022/08/03 00:12:47;;;;;;;7.57;1.83;;;24.20;1.00;;;;;;5029445;28;20195;-92
2022/08/03 00:15:34;;;;;;;7.47;1.60;;;24.20;1.00;;;;;;5058397;28;20152;-94
2022/08/03 00:18:50;;;;;;;5.00;1.63;;;24.10;1.00;;;;;;5076132;28;20199;-96
2022/08/03 00:21:23;;;;;;;3.83;1.40;;;23.90;1.00;;;;;;5060805;28;20168;-96
2022/08/03 00:24:17;;;;;;;4.63;1.33;;;23.80;1.00;;;;;;5077258;28;20160;-94
2022/08/03 00:27:07;;;;;;;5.57;1.50;;;23.80;1.00;;;;;;5060773;28;20159;-95
2022/08/03 00:29:37;;;;;;;5.03;1.40;;;23.70;1.00;;;;;;5059761;28;21255;-94
2022/08/03 00:32:17;;;;;;;2.87;1.30;;;23.80;1.00;;;;;;5077927;28;20232;-96
2022/08/03 00:34:53;;;;;;;6.10;1.40;;;23.60;1.00;;;;;;5061030;28;20176;-92
2022/08/03 00:37:38;;;;;;;8.33;1.60;;;23.40;1.00;;;;;;5077699;28;20182;-92
2022/08/03 00:40:22;;;;;;;5.17;1.70;;;23.40;1.00;;;;;;5044244;28;20270;-91
2022/08/03 00:43:10;;;;;;;7.57;1.50;;;23.30;1.00;;;;;;5076816;28;20171;-93
2022/08/03 00:45:59;;;;;;;6.37;1.63;;;23.30;1.00;;;;;;5073443;28;20211;-93
2022/08/03 00:48:36;;;;;;;5.00;1.97;;;23.30;1.00;;;;;;5059389;28;20228;-91
2022/08/03 00:51:37;;;;;;;4.37;1.60;;;23.30;1.00;;;;;;5060214;28;20203;-95
2022/08/03 00:54:24;;;;;;;8.00;1.90;;;23.50;1.00;;;;;;5059222;28;20172;-96
2022/08/03 00:57:13;;;;;;;6.23;1.80;;;23.60;1.00;;;;;;5073165;28;20169;-90
2022/08/03 00:59:50;;;;;;;7.17;2.20;;;23.60;1.00;;;;;;5074783;28;20230;-96
2022/08/03 01:02:20;;;;;;;6.73;1.60;;;23.40;1.00;;;;;;5051819;28;20241;-91
2022/08/03 01:05:00;;;;;;;4.93;1.50;;;23.10;1.00;;;;;;5065921;28;20187;-90
2022/08/03 01:07:41;;;;;;;5.03;1.97;;;23.00;1.00;;;;;;5058206;28;20179;-90
2022/08/03 01:11:23;;;;;;;7.33;2.03;;;23.10;1.00;;;;;;5046830;28;20175;-91
2022/08/03 01:14:46;;;;;;;8.50;2.00;;;23.00;1.00;;;;;;5065810;28;20175;-90
2022/08/03 01:17:58;;;;;;;5.40;1.73;;;23.10;1.00;;;;;;4983358;28;20228;-91
2022/08/03 01:21:10;;;;;;;4.23;1.63;;;23.10;1.00;;;;;;4983731;28;20307;-91
2022/08/03 01:30:43;;;;;;;8.33;2.30;;;23.10;1.00;;;;;;4977748;28;20685;-90
2022/08/03 01:33:24;;;;;;;7.57;1.70;;;23.20;1.00;;;;;;4986401;28;20206;-89
2022/08/03 01:36:01;;;;;;;6.27;1.80;;;23.10;1.00;;;;;;4987290;28;20612;-91
2022/08/03 01:39:00;;;;;;;6.47;1.73;;;23.10;1.00;;;;;;4986754;28;20220;-91
2022/08/03 01:42:01;;;;;;;5.80;2.23;;;23.20;1.00;;;;;;4988063;28;20186;-90
2022/08/03 01:44:43;;;;;;;6.40;2.10;;;23.10;1.00;;;;;;4970544;28;20183;-90
2022/08/03 01:47:22;;;;;;;4.37;1.57;;;22.90;1.00;;;;;;4971077;28;20249;-91
2022/08/03 01:50:04;;;;;;;7.27;1.90;;;22.90;1.00;;;;;;4987379;28;20246;-90
2022/08/03 01:52:40;;;;;;;8.03;2.07;;;22.90;1.00;;;;;;5004509;28;20196;-91
2022/08/03 01:55:58;;;;;;;7.53;2.00;;;22.80;1.00;;;;;;5067858;28;20185;-91
2022/08/03 01:58:35;;;;;;;6.57;2.00;;;22.70;1.00;;;;;;5035865;28;20211;-92
2022/08/03 02:01:27;;;;;;;9.83;2.43;;;22.60;1.00;;;;;;5078803;28;20176;-95
2022/08/03 02:04:42;;;;;;;8.17;1.90;;;22.50;1.00;;;;;;5081510;28;20300;-94
2022/08/03 02:07:36;;;;;;;6.67;1.97;;;22.50;1.00;;;;;;5064566;28;20166;-93
2022/08/03 02:10:29;;;;;;;7.00;1.70;;;22.50;1.00;;;;;;5063511;28;20179;-95
2022/08/03 02:13:11;;;;;;;7.77;1.70;;;22.60;1.00;;;;;;5081695;28;20173;-95
2022/08/03 02:16:18;;;;;;;7.53;2.00;;;22.60;1.00;;;;;;5064055;28;20158;-91
2022/08/03 02:19:12;;;;;;;7.10;1.77;;;22.60;1.00;;;;;;5063792;28;20210;-92
2022/08/03 02:22:27;;;;;;;6.43;2.03;;;22.70;1.00;;;;;;5081990;28;20224;-92
2022/08/03 02:25:55;;;;;;;6.17;2.10;;;22.70;1.00;;;;;;5064605;28;20163;-90
2022/08/03 02:32:15;;;;;;;6.77;2.23;;;22.70;1.00;;;;;;5081903;28;20163;-92
2022/08/03 02:34:49;;;;;;;7.17;2.33;;;22.60;1.00;;;;;;5081024;28;20180;-92
2022/08/03 02:37:48;;;;;;;4.83;1.93;;;22.60;1.00;;;;;;5080720;28;20178;-90
2022/08/03 02:40:50;;;;;;;8.70;2.37;;;22.60;1.00;;;;;;5064544;28;20175;-91
2022/08/03 02:43:56;;;;;;;8.90;2.13;;;22.60;1.00;;;;;;5064394;28;20157;-92
2022/08/03 02:46:43;;;;;;;4.07;1.97;;;22.50;1.00;;;;;;5063769;28;20198;-92
2022/08/03 02:52:36;;;;;;;8.13;2.27;;;22.30;1.00;;;;;;5081389;28;20186;-94
2022/08/03 02:55:19;;;;;;;6.30;2.10;;;22.30;1.00;;;;;;5034848;28;20198;-90
2022/08/03 02:58:29;;;;;;;6.33;2.20;;;22.20;1.00;;;;;;5067347;28;20195;-90
2022/08/03 03:01:16;;;;;;;5.73;2.00;;;22.00;1.00;;;;;;5058009;28;20187;-91
2022/08/03 03:03:52;;;;;;;5.57;2.20;;;22.00;1.00;;;;;;5055116;28;20180;-90
2022/08/03 03:06:28;;;;;;;6.77;2.07;;;21.90;1.00;;;;;;5055355;28;20272;-90
2022/08/03 03:09:27;;;;;;;6.93;2.10;;;21.90;1.00;;;;;;5057492;28;20167;-91
2022/08/03 03:12:36;;;;;;;6.80;1.90;;;21.90;1.00;;;;;;5049011;28;20194;-91
2022/08/03 03:15:38;;;;;;;4.53;1.97;;;22.00;1.00;;;;;;5052517;28;20639;-90
2022/08/03 03:18:20;;;;;;;6.20;2.00;;;22.00;1.00;;;;;;5071191;28;20218;-91
2022/08/03 03:20:51;;;;;;;7.07;2.30;;;22.00;1.00;;;;;;5054399;28;20188;-91
2022/08/03 03:23:37;;;;;;;6.17;2.23;;;22.00;1.00;;;;;;5075363;28;20146;-91
2022/08/03 03:26:42;;;;;;;8.80;2.00;;;22.00;1.00;;;;;;5063561;28;20190;-89
2022/08/03 03:29:36;;;;;;;5.13;2.00;;;22.10;1.00;;;;;;5054165;28;20191;-91
2022/08/03 03:32:08;;;;;;;5.90;1.87;;;21.90;1.00;;;;;;5052332;28;20182;-91
2022/08/03 03:35:08;;;;;;;5.00;2.13;;;21.90;1.00;;;;;;5050030;28;20174;-91
2022/08/03 03:37:57;;;;;;;5.43;2.10;;;21.80;1.00;;;;;;5071979;28;20176;-90
2022/08/03 03:40:24;;;;;;;6.27;1.90;;;21.80;1.00;;;;;;5046391;28;20205;-90
2022/08/03 03:46:17;;;;;;;10.43;3.03;;;21.90;1.00;;;;;;5080186;28;20181;-90
2022/08/03 03:48:48;;;;;;;6.47;2.43;;;21.70;1.00;;;;;;5062449;28;20257;-91
2022/08/03 03:51:15;;;;;;;9.53;2.20;;;21.70;1.00;;;;;;5209436;22;20229;-91
2022/08/03 03:54:15;;;;;;;8.70;2.57;;;21.70;1.00;;;;;;5050057;28;20165;-91
2022/08/03 03:57:18;;;;;;;15.70;3.03;;;21.70;1.00;;;;;;5056400;28;20225;-90
2022/08/03 04:03:09;;;;;;;5.70;2.13;;;21.70;1.00;;;;;;5077679;28;20193;-92
2022/08/03 04:11:37;;;;;;;8.77;2.30;;;21.40;3.10;;;;;;5075533;28;20150;-92
2022/08/03 04:14:38;;;;;;;7.70;2.07;;;21.50;2.30;;;;;;5066645;28;20158;-90
2022/08/03 04:17:50;;;;;;;7.17;2.37;;;21.40;2.70;;;;;;5048341;28;20238;-91
2022/08/03 04:21:10;;;;;;;7.73;2.37;;;21.60;1.00;;;;;;5061376;28;20185;-93
2022/08/03 04:24:25;;;;;;;10.07;2.40;;;21.50;1.00;;;;;;5061429;28;20201;-93
2022/08/03 04:30:46;;;;;;;5.80;2.03;;;21.50;5.30;;;;;;5079455;28;20222;-92
2022/08/03 04:44:08;;;;;;;10.27;2.93;;;21.70;1.00;;;;;;5057904;28;20254;-93
2022/08/03 04:47:26;;;;;;;10.03;2.40;;;21.70;1.00;;;;;;5060745;28;20186;-90
2022/08/03 04:50:17;;;;;;;9.37;2.50;;;21.70;1.00;;;;;;5079015;28;20211;-91
2022/08/03 04:53:18;;;;;;;7.43;2.27;;;21.60;1.00;;;;;;5065209;28;20626;-92
2022/08/03 04:56:32;;;;;;;7.63;2.10;;;21.50;2.20;;;;;;5046735;28;20189;-91
2022/08/03 04:59:27;;;;;;;8.83;2.40;;;21.60;2.40;;;;;;5065357;28;20223;-92
2022/08/03 05:02:42;;;;;;;8.63;2.17;;;21.50;1.00;;;;;;5057059;28;20233;-90
2022/08/03 05:05:53;;;;;;;11.23;2.60;;;21.60;1.00;;;;;;5075436;28;20243;-88
2022/08/03 05:08:38;;;;;;;10.80;2.50;;;21.70;1.00;;;;;;5055254;28;20216;-90
2022/08/03 05:12:01;;;;;;;12.00;2.63;;;21.60;1.00;;;;;;5058426;28;20182;-89
2022/08/03 05:15:15;;;;;;;10.50;2.93;;;21.60;1.00;;;;;;5055656;28;20162;-92
2022/08/03 05:17:45;;;;;;;9.93;2.50;;;21.70;1.00;;;;;;5083564;22;20300;-93
2022/08/03 05:20:44;;;;;;;12.87;2.57;;;21.80;1.00;;;;;;5074220;28;20221;-91
2022/08/03 05:23:37;;;;;;;9.67;2.80;;;21.90;1.00;;;;;;5077326;28;20170;-90
2022/08/03 05:26:38;;;;;;;7.57;2.20;;;21.90;1.00;;;;;;5074326;28;20162;-91
2022/08/03 05:29:11;;;;;;;12.00;2.97;;;22.00;1.00;;;;;;5072728;28;20188;-91
2022/08/03 05:31:56;;;;;;;8.07;2.23;;;22.30;1.00;;;;;;5074374;28;20159;-92
2022/08/03 05:34:30;;;;;;;12.27;3.03;;;22.30;1.00;;;;;;5041587;28;20199;-91
2022/08/03 05:37:00;;;;;;;11.57;2.80;;;22.20;1.00;;;;;;5042579;28;20174;-91
2022/08/03 05:39:29;;;;;;;15.03;3.57;;;22.00;1.00;;;;;;5085091;22;20226;-93
2022/08/03 05:42:32;;;;;;;10.60;2.93;;;22.10;1.00;;;;;;5075033;28;20193;-92
2022/08/03 05:45:28;;;;;;;13.30;3.60;;;21.90;1.00;;;;;;5079123;28;20177;-93
2022/08/03 05:48:41;;;;;;;13.00;3.00;;;22.20;1.00;;;;;;5096066;28;20227;-92
2022/08/03 05:51:59;;;;;;;10.40;2.90;;;22.20;1.00;;;;;;5090110;28;20166;-91
2022/08/03 05:54:31;;;;;;;6.37;2.50;;;22.30;1.00;;;;;;5060383;28;20178;-91
2022/08/03 05:57:29;;;;;;;9.33;2.80;;;22.40;1.00;;;;;;5076786;28;20178;-92
2022/08/03 06:00:16;;;;;;;10.67;2.87;;;22.40;1.00;;;;;;5095357;28;20194;-91
2022/08/03 06:03:36;;;;;;;8.73;2.63;;;22.50;1.00;;;;;;5077848;28;20212;-92
2022/08/03 06:06:24;;;;;;;11.43;2.63;;;22.40;1.00;;;;;;5095517;28;20182;-90
2022/08/03 06:08:59;;;;;;;9.47;2.73;;;22.50;1.00;;;;;;5076902;28;20216;-90
2022/08/03 06:12:03;;;;;;;9.00;2.70;;;22.60;1.00;;;;;;5095252;28;20181;-90
2022/08/03 06:14:34;;;;;;;8.70;2.90;;;22.60;1.00;;;;;;5081230;28;20175;-91
2022/08/03 06:17:53;;;;;;;8.97;2.57;;;22.60;1.00;;;;;;5080636;28;20207;-90
2022/08/03 06:20:20;;;;;;;8.13;2.33;;;22.60;1.00;;;;;;5098413;28;20210;-93
2022/08/03 06:23:08;;;;;;;6.67;2.57;;;22.60;1.00;;;;;;5098690;28;20208;-90
2022/08/03 06:26:00;;;;;;;8.53;2.93;;;22.60;1.00;;;;;;5081291;28;20158;-90
2022/08/03 06:28:26;;;;;;;10.07;2.60;;;22.70;1.00;;;;;;5082951;28;20178;-91
2022/08/03 06:31:22;;;;;;;8.70;2.60;;;22.70;1.00;;;;;;5064018;28;20235;-90
2022/08/03 06:33:53;;;;;;;9.40;2.60;;;22.60;1.00;;;;;;5099214;28;20175;-92
2022/08/03 06:36:49;;;;;;;6.60;2.57;;;22.70;1.00;;;;;;5100432;28;20164;-96
2022/08/03 06:39:39;;;;;;;6.70;2.33;;;22.90;1.00;;;;;;5095229;28;20206;-91
2022/08/03 06:42:12;;;;;;;8.30;2.63;;;23.00;1.00;;;;;;5071217;28;20187;-91
2022/08/03 06:44:48;;;;;;;8.70;2.43;;;23.10;1.00;;;;;;5088353;28;20175;-91
2022/08/03 06:47:45;;;;;;;8.40;2.27;;;23.40;1.00;;;;;;5070960;28;20205;-90
2022/08/03 06:50:27;;;;;;;6.40;2.27;;;23.50;1.00;;;;;;5093251;28;20170;-89
2022/08/03 06:52:59;;;;;;;6.70;2.00;;;23.50;1.00;;;;;;5073666;28;20182;-89
2022/08/03 06:55:59;;;;;;;6.27;2.00;;;23.50;1.00;;;;;;5090568;28;20164;-89
2022/08/03 07:01:53;;;;;;;6.47;2.13;;;23.40;1.00;;;;;;5090364;28;20170;-89
2022/08/03 07:04:25;;;;;;;11.33;2.43;;;23.40;1.00;;;;;;5055182;28;20173;-89
2022/08/03 07:07:32;;;;;;;7.50;2.07;;;23.50;1.00;;;;;;5074057;28;20252;-89
2022/08/03 07:10:11;;;;;;;5.83;2.10;;;23.60;1.00;;;;;;5073853;28;20236;-88
2022/08/03 07:12:41;;;;;;;5.47;1.90;;;23.70;1.00;;;;;;5071573;28;20220;-91
2022/08/03 07:15:43;;;;;;;8.90;2.70;;;23.80;1.00;;;;;;5074427;28;20690;-92
2022/08/03 07:18:16;;;;;;;5.03;1.93;;;23.90;1.00;;;;;;5074273;28;20198;-91
2022/08/03 07:21:29;;;;;;;5.40;1.87;;;24.10;1.00;;;;;;5087938;28;20195;-91
2022/08/03 07:27:18;;;;;;;5.97;1.80;;;24.50;1.00;;;;;;5087483;28;20188;-92
2022/08/03 07:30:37;;;;;;;9.00;1.97;;;24.80;1.00;;;;;;5070569;28;20176;-91
2022/08/03 07:36:52;;;;;;;5.77;1.47;;;25.00;1.00;;;;;;5089919;28;20175;-93
2022/08/03 07:39:28;;;;;;;5.93;2.00;;;25.10;1.00;;;;;;5074631;28;20196;-93
2022/08/03 07:42:49;;;;;;;6.47;1.70;;;25.30;1.00;;;;;;5095423;28;20199;-91
2022/08/03 07:45:28;;;;;;;6.87;1.80;;;25.30;1.00;;;;;;5069339;28;20192;-92
2022/08/03 07:47:57;;;;;;;5.23;1.60;;;25.40;1.00;;;;;;5068114;28;20176;-90
2022/08/03 07:50:25;;;;;;;5.27;1.80;;;25.50;1.00;;;;;;5067492;28;20180;-91
2022/08/03 07:53:06;;;;;;;6.53;1.80;;;25.50;1.00;;;;;;5066667;28;20184;-92
2022/08/03 07:55:33;;;;;;;8.13;1.80;;;25.50;1.00;;;;;;5068650;28;20649;-91
2022/08/03 07:58:23;;;;;;;8.57;1.63;;;25.50;99.90;;;;;;5073257;28;20202;-90
2022/08/03 08:00:52;;;;;;;9.83;1.80;;;25.50;99.90;;;;;;5093324;28;20195;-91
2022/08/03 08:03:26;;;;;;;7.10;1.60;;;25.50;99.90;;;;;;5066412;28;20206;-90
2022/08/03 08:06:11;;;;;;;5.10;1.73;;;25.60;99.90;;;;;;5066185;28;20175;-91
2022/08/03 08:08:40;;;;;;;6.97;2.07;;;25.80;99.90;;;;;;5067267;28;20175;-94
2022/08/03 08:11:10;;;;;;;10.13;2.20;;;25.90;99.90;;;;;;5066445;28;20247;-92
2022/08/03 08:13:37;;;;;;;7.40;1.80;;;25.90;99.90;;;;;;5075364;28;20184;-90
2022/08/03 08:16:04;;;;;;;10.00;2.00;;;25.90;99.90;;;;;;5076771;28;20204;-92
2022/08/03 08:18:30;;;;;;;6.80;2.23;;;25.90;99.90;;;;;;5072293;28;20209;-95
2022/08/03 08:21:11;;;;;;;8.63;1.93;;;26.00;99.90;;;;;;5079907;28;20196;-94
2022/08/03 08:23:38;;;;;;;7.50;2.07;;;26.10;99.90;;;;;;5097580;28;20161;-96
2022/08/03 08:26:05;;;;;;;8.10;2.10;;;26.20;99.90;;;;;;5096527;28;20164;-91
2022/08/03 08:28:37;;;;;;;8.20;2.30;;;26.50;99.90;;;;;;5081156;28;20187;-89
2022/08/03 08:31:06;;;;;;;7.83;2.30;;;26.40;99.90;;;;;;5073836;28;20164;-90
2022/08/03 08:33:39;;;;;;;8.03;2.30;;;26.50;99.90;;;;;;5072061;28;20180;-91
2022/08/03 08:37:00;;;;;;;6.90;2.00;;;26.50;99.90;;;;;;5070610;28;20188;-93
2022/08/03 08:39:50;;;;;;;10.47;2.10;;;26.70;1.00;;;;;;5087388;28;20287;-91
2022/08/03 08:42:46;;;;;;;8.47;2.60;;;26.60;1.00;;;;;;5091424;28;20184;-92
2022/08/03 08:45:14;;;;;;;7.47;2.23;;;26.70;99.90;;;;;;5090900;28;20156;-94
2022/08/03 08:47:49;;;;;;;7.10;2.60;;;26.70;1.00;;;;;;5073073;28;20179;-92
2022/08/03 08:50:22;;;;;;;8.67;2.60;;;26.60;1.00;;;;;;5061240;28;20157;-92
2022/08/03 08:53:02;;;;;;;5.77;1.70;;;26.70;99.90;;;;;;5097583;28;20163;-92
2022/08/03 08:55:34;;;;;;;6.43;2.20;;;26.80;99.90;;;;;;5081052;28;20183;-88
2022/08/03 08:58:09;;;;;;;7.03;2.13;;;27.00;37.30;;;;;;5098009;28;20168;-92
2022/08/03 09:00:48;;;;;;;10.43;2.40;;;27.10;1.00;;;;;;5080212;28;20171;-92
2022/08/03 09:03:31;;;;;;;5.87;1.90;;;27.10;1.00;;;;;;5080979;28;20232;-94
2022/08/03 09:06:06;;;;;;;12.87;2.43;;;27.40;1.00;;;;;;5080209;28;20162;-93
2022/08/03 09:09:05;;;;;;;7.47;1.63;;;27.60;76.90;;;;;;5080887;28;20246;-95
2022/08/03 09:14:48;;;;;;;7.47;1.77;;;27.70;1.00;;;;;;5093471;28;20176;-92
2022/08/03 09:17:20;;;;;;;10.17;2.17;;;27.60;1.00;;;;;;5070565;28;20197;-96
2022/08/03 09:20:08;;;;;;;7.27;1.90;;;27.70;99.90;;;;;;5069692;28;20255;-95
2022/08/03 09:23:09;;;;;;;6.83;1.53;;;27.80;1.00;;;;;;5082111;28;20179;-96
2022/08/03 09:25:42;;;;;;;7.45;1.85;;;28.00;1.00;;;;;;5066546;28;20167;-95
2022/08/03 09:28:14;;;;;;;9.83;2.63;;;28.00;99.90;;;;;;5062356;28;20250;-96
2022/08/03 09:31:15;;;;;;;5.60;1.43;;;28.10;1.00;;;;;;5096102;28;20160;-95
2022/08/03 09:34:23;;;;;;;8.67;1.77;;;28.10;1.00;;;;;;5097712;28;20203;-94
2022/08/03 09:36:53;;;;;;;7.00;1.60;;;28.10;1.00;;;;;;5075525;28;20169;-92
2022/08/03 09:39:36;;;;;;;6.87;1.73;;;28.10;51.00;;;;;;5076485;28;20233;-96
2022/08/03 09:42:16;;;;;;;12.57;1.60;;;28.10;46.40;;;;;;5056564;28;20267;-95
2022/08/03 09:44:53;;;;;;;7.20;1.97;;;28.20;99.90;;;;;;5067751;28;20179;-96
2022/08/03 09:47:31;;;;;;;7.35;1.77;;;28.30;1.00;;;;;;5074724;28;20187;-96
2022/08/03 09:50:02;;;;;;;3.80;1.60;;;28.40;1.00;;;;;;5072645;28;20234;-96
2022/08/03 09:52:46;;;;;;;9.23;1.42;;;28.50;99.90;;;;;;5076555;28;20185;-96
2022/08/03 09:55:23;;;;;;;6.65;1.83;;;28.80;99.90;;;;;;5078715;28;20221;-96
2022/08/03 09:57:51;;;;;;;4.38;1.05;;;28.80;99.90;;;;;;5092686;28;20160;-96
2022/08/03 10:00:17;;;;;;;7.13;1.60;;;28.90;1.00;;;;;;5093480;28;20200;-96
2022/08/03 10:03:04;;;;;;;5.03;1.40;;;28.90;1.00;;;;;;5076981;28;20157;-96
2022/08/03 10:05:33;;;;;;;3.92;1.00;;;29.10;1.00;;;;;;5093113;28;20178;-96
2022/08/03 10:08:21;;;;;;;8.10;1.30;;;29.30;4.40;;;;;;5081744;28;20338;-93
2022/08/03 10:10:53;;;;;;;5.35;1.58;;;29.50;99.90;;;;;;5095702;28;20172;-95
2022/08/03 10:13:39;;;;;;;5.43;1.70;;;29.60;99.90;;;;;;5094843;28;20185;-96
2022/08/03 10:16:06;;;;;;;7.57;1.92;;;29.50;1.00;;;;;;5082608;28;20180;-92
2022/08/03 10:23:53;;;;;;;4.95;1.40;;;29.60;33.40;;;;;;5077237;22;20209;-89
2022/08/03 10:28:55;;;;;;;2.40;1.02;;;29.50;99.90;;;;;;5038994;28;20190;-91
2022/08/03 10:31:56;;;;;;;4.65;1.50;;;29.20;1.00;;;;;;5024283;28;20242;-91
2022/08/03 10:34:26;;;;;;;4.70;1.67;;;29.20;99.90;;;;;;5022942;28;20154;-91
2022/08/03 10:36:57;;;;;;;4.35;1.50;;;29.30;99.90;;;;;;5001674;28;20186;-91
2022/08/03 10:39:29;;;;;;;5.35;1.35;;;29.50;1.00;;;;;;4999637;28;20210;-91
2022/08/03 10:42:09;;;;;;;9.18;1.88;;;29.70;99.90;;;;;;5031342;28;20166;-91
2022/08/03 10:44:40;;;;;;;3.75;1.48;;;29.60;99.90;;;;;;5012348;28;20234;-90
2022/08/03 10:47:08;;;;;;;3.88;1.40;;;29.60;1.00;;;;;;5016269;28;20170;-89
2022/08/03 10:49:37;;;;;;;3.78;1.55;;;29.70;99.90;;;;;;5014126;28;20187;-91
2022/08/03 10:52:05;;;;;;;8.15;1.55;;;30.00;99.90;;;;;;5014559;28;20170;-91
2022/08/03 11:00:51;;;;;;;11.00;2.30;;;30.40;99.90;;;;;;5023794;28;20252;-93
2022/08/03 11:03:18;;;;;;;6.00;1.27;;;30.30;99.90;;;;;;5003027;28;20668;-88
2022/08/03 11:05:52;;;;;;;4.88;1.48;;;30.20;99.90;;;;;;5008590;28;20185;-89
2022/08/03 11:09:10;;;;;;;6.28;1.60;;;30.10;1.00;;;;;;5002001;28;20182;-87
2022/08/03 11:11:42;;;;;;;4.72;1.20;;;30.20;1.00;;;;;;4992576;28;20186;-89
2022/08/03 11:14:44;;;;;;;4.95;1.27;;;30.30;46.80;;;;;;5008811;28;20674;-87
2022/08/03 11:17:33;;;;;;;4.32;1.23;;;30.40;1.00;;;;;;5020212;28;20209;-87
2022/08/03 11:20:36;;;;;;;2.95;1.27;;;30.40;1.00;;;;;;5036320;28;20205;-89
2022/08/03 11:23:04;;;;;;;12.95;7.57;;;30.40;1.00;;;;;;5014050;28;20151;-87
2022/08/03 11:26:11;;;;;;;8.38;1.55;;;30.40;99.90;;;;;;5018091;28;20166;-88
2022/08/03 11:28:42;;;;;;;3.50;1.00;;;30.50;99.90;;;;;;5020876;28;20190;-91
2022/08/03 11:31:23;;;;;;;3.00;1.10;;;30.50;99.90;;;;;;5038050;28;20173;-89
2022/08/03 11:34:07;;;;;;;3.67;1.13;;;30.70;99.90;;;;;;5023095;28;20217;-89
2022/08/03 11:39:47;;;;;;;2.75;1.10;;;30.50;1.00;;;;;;5039081;28;20198;-88
2022/08/03 11:42:26;;;;;;;8.38;1.77;;;30.40;96.80;;;;;;5021782;28;20229;-90
2022/08/03 11:45:06;;;;;;;3.60;1.45;;;30.50;1.00;;;;;;5019094;28;20181;-94
2022/08/03 11:47:41;;;;;;;5.15;1.42;;;30.30;99.90;;;;;;5016572;28;20205;-89
2022/08/03 11:50:08;;;;;;;2.65;1.35;;;30.40;2.20;;;;;;5017836;28;20181;-92
2022/08/03 11:52:36;;;;;;;3.65;1.27;;;30.50;1.00;;;;;;5006594;28;20228;-94
2022/08/03 11:55:07;;;;;;;4.60;1.30;;;30.50;1.00;;;;;;5004906;28;20174;-95
2022/08/03 11:57:34;;;;;;;4.80;1.40;;;30.70;1.00;;;;;;5006177;28;20197;-94
2022/08/03 12:00:00;;;;;;;4.05;1.60;;;30.80;1.00;;;;;;5027140;28;20234;-94
2022/08/03 12:02:26;;;;;;;9.48;8.20;;;30.90;1.00;;;;;;5004808;28;20228;-95
2022/08/03 12:04:59;;;;;;;4.20;0.90;;;30.80;99.90;;;;;;5022211;28;20174;-94
2022/08/03 12:07:26;;;;;;;5.10;1.23;;;30.90;99.90;;;;;;5004842;28;20707;-95
2022/08/03 12:10:07;;;;;;;8.35;1.63;;;31.10;1.00;;;;;;5002541;28;20191;-94
2022/08/03 12:12:34;;;;;;;4.63;1.60;;;31.20;1.00;;;;;;5004664;28;20281;-95
2022/08/03 12:15:03;;;;;;;7.85;3.25;;;31.30;99.90;;;;;;5019731;28;20165;-90
2022/08/03 12:17:34;;;;;;;5.78;2.78;;;31.20;1.00;;;;;;5021780;28;20182;-86
2022/08/03 12:20:00;;;;;;;5.05;1.30;;;31.20;99.90;;;;;;5021463;28;20221;-91
2022/08/03 12:22:37;;;;;;;4.28;1.17;;;31.20;99.90;;;;;;5021909;28;20162;-89
2022/08/03 12:25:06;;;;;;;3.22;1.30;;;31.30;99.90;;;;;;5022271;28;20161;-88
2022/08/03 12:27:32;;;;;;;5.40;1.40;;;31.30;99.90;;;;;;5047587;28;20201;-93
2022/08/03 12:30:00;;;;;;;3.40;1.00;;;31.30;99.90;;;;;;5041715;28;20185;-89
2022/08/03 12:32:30;;;;;;;3.67;1.00;;;31.20;99.90;;;;;;5058437;28;20157;-89
2022/08/03 12:35:03;;;;;;;5.60;1.20;;;31.20;99.90;;;;;;5040990;28;20169;-87
2022/08/03 12:37:30;;;;;;;4.85;1.95;;;31.30;99.90;;;;;;5032973;28;20680;-87
2022/08/03 12:40:00;;;;;;;4.03;1.00;;;31.50;99.90;;;;;;5031670;28;20216;-87
2022/08/03 12:42:35;;;;;;;5.45;1.20;;;31.60;99.90;;;;;;5032551;28;20173;-89
2022/08/03 12:45:26;;;;;;;5.47;1.50;;;31.60;99.90;;;;;;5032842;28;20173;-88
2022/08/03 12:47:58;;;;;;;3.78;1.20;;;31.70;99.90;;;;;;5034722;28;20177;-88
2022/08/03 12:50:32;;;;;;;5.82;1.52;;;31.90;99.90;;;;;;5053883;28;20173;-86
2022/08/03 12:53:04;;;;;;;4.05;1.02;;;32.00;98.20;;;;;;5038494;28;20185;-88
2022/08/03 12:55:34;;;;;;;3.15;1.10;;;32.20;1.00;;;;;;5051187;28;20200;-88
2022/08/03 12:58:09;;;;;;;5.40;1.23;;;32.40;1.00;;;;;;5026824;28;20699;-92
2022/08/03 13:00:39;;;;;;;4.63;0.75;;;32.40;1.00;;;;;;5023108;28;20199;-89
2022/08/03 13:03:27;;;;;;;4.80;0.98;;;32.70;1.00;;;;;;5024209;28;20162;-92
2022/08/03 13:06:01;;;;;;;2.90;0.90;;;32.50;1.00;;;;;;5021745;28;20759;-92
2022/08/03 13:09:07;;;;;;;1.80;0.93;;;32.40;1.00;;;;;;5030367;28;20180;-87
2022/08/03 13:11:35;;;;;;;2.60;1.13;;;32.20;1.00;;;;;;5049402;28;20158;-93
2022/08/03 13:14:03;;;;;;;3.63;1.38;;;32.40;1.00;;;;;;5021145;28;20166;-90
2022/08/03 13:16:35;;;;;;;2.75;1.00;;;32.60;1.00;;;;;;5020099;28;20235;-93
2022/08/03 13:19:09;;;;;;;6.45;1.00;;;32.90;1.00;;;;;;5020759;28;20239;-94
2022/08/03 13:21:48;;;;;;;3.33;1.05;;;33.10;1.00;;;;;;5040086;28;20165;-93
2022/08/03 13:27:43;;;;;;;3.58;1.02;;;32.80;1.00;;;;;;5057260;28;20212;-91
2022/08/03 13:30:11;;;;;;;3.47;1.00;;;32.90;1.00;;;;;;5039973;28;20556;-89
2022/08/03 13:32:39;;;;;;;3.53;0.90;;;33.20;1.00;;;;;;5036472;28;20177;-88
2022/08/03 13:35:14;;;;;;;3.20;1.02;;;33.30;1.00;;;;;;5037328;28;20174;-94
2022/08/03 13:37:39;;;;;;;4.30;0.93;;;33.10;1.00;;;;;;5028875;28;20176;-94
2022/08/03 13:40:14;;;;;;;3.22;1.10;;;32.40;1.00;;;;;;5027467;28;20213;-94
2022/08/03 13:42:48;;;;;;;4.47;1.13;;;32.10;1.00;;;;;;5025520;28;20169;-94
2022/08/03 13:45:15;;;;;;;4.30;1.20;;;32.20;1.00;;;;;;5040933;28;20174;-93
2022/08/03 13:47:44;;;;;;;4.30;1.10;;;32.50;1.00;;;;;;5022703;28;20166;-94
2022/08/03 13:50:12;;;;;;;2.35;1.00;;;32.70;1.00;;;;;;5020645;28;20205;-93
2022/08/03 13:52:37;;;;;;;3.95;0.90;;;33.00;1.00;;;;;;5022164;28;20640;-94
2022/08/03 13:55:10;;;;;;;3.53;0.90;;;33.00;1.00;;;;;;5021972;28;20189;-93
2022/08/03 13:57:36;;;;;;;2.97;0.95;;;32.90;1.00;;;;;;5020724;28;20197;-92
2022/08/03 14:00:05;;;;;;;2.47;1.17;;;32.90;1.00;;;;;;5020636;28;20296;-92
2022/08/03 14:02:31;;;;;;;6.55;1.30;;;33.00;1.00;;;;;;5033131;28;20234;-92
2022/08/03 14:04:57;;;;;;;4.95;1.00;;;33.20;1.00;;;;;;5039736;28;20185;-93
2022/08/03 14:07:22;;;;;;;6.50;1.23;;;33.40;1.00;;;;;;5040403;28;20241;-95
2022/08/03 14:09:48;;;;;;;2.60;1.38;;;33.80;1.00;;;;;;5036853;28;20189;-89
2022/08/03 14:12:15;;;;;;;3.65;1.20;;;34.20;1.00;;;;;;5031104;28;20178;-89
2022/08/03 14:14:48;;;;;;;2.90;0.80;;;34.30;1.00;;;;;;5010067;28;20186;-93
2022/08/03 14:17:14;;;;;;;3.25;1.17;;;34.30;1.00;;;;;;5006040;28;20634;-87
2022/08/03 14:19:39;;;;;;;4.72;1.25;;;33.80;1.00;;;;;;5000666;28;20214;-91
2022/08/03 14:22:11;;;;;;;4.85;1.60;;;33.60;1.00;;;;;;4985764;28;20178;-88
2022/08/03 14:24:44;;;;;;;4.78;1.60;;;33.40;1.00;;;;;;5004772;28;20174;-88
2022/08/03 14:27:20;;;;;;;4.15;1.20;;;33.40;1.00;;;;;;5010905;28;20194;-94
2022/08/03 14:29:46;;;;;;;4.60;0.80;;;33.40;1.00;;;;;;5004794;28;20181;-89
2022/08/03 14:32:21;;;;;;;4.53;1.13;;;33.70;1.00;;;;;;4987475;28;20250;-90
2022/08/03 14:34:47;;;;;;;4.15;1.20;;;34.10;1.00;;;;;;5009173;28;20174;-92
2022/08/03 14:37:14;;;;;;;4.30;0.90;;;33.70;1.00;;;;;;5022625;28;20169;-91
2022/08/03 14:39:40;;;;;;;6.40;1.67;;;33.60;1.00;;;;;;5033534;28;20213;-88
2022/08/03 14:42:08;;;;;;;5.75;1.08;;;33.60;1.00;;;;;;5039242;28;20193;-89
2022/08/03 14:44:33;;;;;;;3.50;0.95;;;33.80;1.00;;;;;;5040740;28;20237;-90
2022/08/03 14:46:59;;;;;;;4.60;1.25;;;33.90;1.00;;;;;;5039833;28;20234;-90
2022/08/03 14:49:25;;;;;;;4.78;1.60;;;34.10;1.00;;;;;;5023185;28;20232;-94
2022/08/03 14:52:03;;;;;;;3.17;1.10;;;34.20;1.00;;;;;;5035585;28;20165;-92
2022/08/03 14:54:33;;;;;;;3.55;1.00;;;34.20;1.00;;;;;;5034578;28;20166;-94
2022/08/03 14:57:02;;;;;;;4.13;0.93;;;33.90;1.00;;;;;;5018795;28;20170;-92
2022/08/03 14:59:43;;;;;;;3.25;1.17;;;33.80;1.00;;;;;;5026978;28;20221;-92
2022/08/03 15:02:12;;;;;;;7.28;1.25;;;33.80;1.00;;;;;;5024605;28;20166;-94
2022/08/03 15:04:41;;;;;;;3.13;1.02;;;34.00;1.00;;;;;;5023613;28;20201;-96
2022/08/03 15:07:11;;;;;;;5.85;1.10;;;34.10;1.00;;;;;;5008060;28;20179;-94
2022/08/03 15:09:51;;;;;;;2.28;1.10;;;34.00;1.00;;;;;;5015980;28;20167;-93
2022/08/03 15:12:18;;;;;;;2.53;1.05;;;33.80;1.00;;;;;;5026852;28;20166;-93
2022/08/03 15:14:45;;;;;;;3.55;1.20;;;33.70;1.00;;;;;;5023851;28;20224;-94
2022/08/03 15:17:10;;;;;;;5.18;1.40;;;33.80;1.00;;;;;;5009290;28;20214;-92
2022/08/03 15:19:49;;;;;;;3.17;1.48;;;34.00;1.00;;;;;;5027679;28;20268;-93
2022/08/03 15:22:18;;;;;;;2.80;0.93;;;33.80;1.00;;;;;;5028115;28;20174;-94
2022/08/03 15:24:45;;;;;;;5.57;1.23;;;33.80;1.00;;;;;;5037413;28;20178;-92